sensor_id;sensor_type;location;lat;lon;timestamp;temperature;humidity
73112;HTU21D;61301;51.956;5.876;2023-02-28T00:00:35;8.01;45.51
73112;HTU21D;61301;51.956;5.876;2023-02-28T00:03:01;8.05;45.35
73112;HTU21D;61301;51.956;5.876;2023-02-28T00:05:28;8.11;45.22
73112;HTU21D;61301;51.956;5.876;2023-02-28T00:07:55;8.09;45.14
73112;HTU21D;61301;51.956;5.876;2023-02-28T00:10:24;8.09;45.25
73112;HTU21D;61301;51.956;5.876;2023-02-28T00:12:51;8.09;45.38
73112;HTU21D;61301;51.956;5.876;2023-02-28T00:15:18;8.13;45.28
73112;HTU21D;61301;51.956;5.876;2023-02-28T00:17:44;8.20;45.51
73112;HTU21D;61301;51.956;5.876;2023-02-28T00:20:11;8.31;45.71
73112;HTU21D;61301;51.956;5.876;2023-02-28T00:22:39;8.41;45.99
73112;HTU21D;61301;51.956;5.876;2023-02-28T00:25:06;8.47;45.83
73112;HTU21D;61301;51.956;5.876;2023-02-28T00:27:35;8.52;45.62
73112;HTU21D;61301;51.956;5.876;2023-02-28T00:30:05;8.51;45.46
73112;HTU21D;61301;51.956;5.876;2023-02-28T00:32:33;8.44;45.32
73112;HTU21D;61301;51.956;5.876;2023-02-28T00:35:01;8.37;45.25
73112;HTU21D;61301;51.956;5.876;2023-02-28T00:37:27;8.30;45.19
73112;HTU21D;61301;51.956;5.876;2023-02-28T00:39:53;8.22;45.19
73112;HTU21D;61301;51.956;5.876;2023-02-28T00:42:19;8.18;45.16
73112;HTU21D;61301;51.956;5.876;2023-02-28T00:44:47;8.13;45.22
73112;HTU21D;61301;51.956;5.876;2023-02-28T00:47:13;8.11;45.23
73112;HTU21D;61301;51.956;5.876;2023-02-28T00:49:40;8.11;45.27
73112;HTU21D;61301;51.956;5.876;2023-02-28T00:52:06;8.08;45.32
73112;HTU21D;61301;51.956;5.876;2023-02-28T00:54:32;8.05;45.43
73112;HTU21D;61301;51.956;5.876;2023-02-28T00:56:58;8.00;45.57
73112;HTU21D;61301;51.956;5.876;2023-02-28T00:59:24;7.98;45.75
73112;HTU21D;61301;51.956;5.876;2023-02-28T01:01:50;7.92;45.97
73112;HTU21D;61301;51.956;5.876;2023-02-28T01:04:16;7.89;46.02
73112;HTU21D;61301;51.956;5.876;2023-02-28T01:06:43;7.89;46.12
73112;HTU21D;61301;51.956;5.876;2023-02-28T01:09:10;7.87;46.25
73112;HTU21D;61301;51.956;5.876;2023-02-28T01:11:36;7.87;46.25
73112;HTU21D;61301;51.956;5.876;2023-02-28T01:14:02;7.90;46.24
73112;HTU21D;61301;51.956;5.876;2023-02-28T01:16:29;7.98;46.06
73112;HTU21D;61301;51.956;5.876;2023-02-28T01:18:56;7.97;46.29
73112;HTU21D;61301;51.956;5.876;2023-02-28T01:21:23;7.99;46.28
73112;HTU21D;61301;51.956;5.876;2023-02-28T01:23:50;8.01;46.13
73112;HTU21D;61301;51.956;5.876;2023-02-28T01:26:22;8.02;46.09
73112;HTU21D;61301;51.956;5.876;2023-02-28T01:28:49;8.03;46.19
73112;HTU21D;61301;51.956;5.876;2023-02-28T01:31:16;8.02;46.22
73112;HTU21D;61301;51.956;5.876;2023-02-28T01:33:42;8.03;46.20
73112;HTU21D;61301;51.956;5.876;2023-02-28T01:36:20;8.01;46.31
73112;HTU21D;61301;51.956;5.876;2023-02-28T01:38:47;8.01;46.23
73112;HTU21D;61301;51.956;5.876;2023-02-28T01:41:18;8.03;46.14
73112;HTU21D;61301;51.956;5.876;2023-02-28T01:46:12;8.04;46.18
73112;HTU21D;61301;51.956;5.876;2023-02-28T01:48:44;8.12;46.16
73112;HTU21D;61301;51.956;5.876;2023-02-28T01:51:22;8.20;46.09
73112;HTU21D;61301;51.956;5.876;2023-02-28T01:53:55;8.31;46.03
73112;HTU21D;61301;51.956;5.876;2023-02-28T01:56:27;8.38;45.88
73112;HTU21D;61301;51.956;5.876;2023-02-28T01:58:55;8.41;45.76
73112;HTU21D;61301;51.956;5.876;2023-02-28T02:01:23;8.44;45.84
73112;HTU21D;61301;51.956;5.876;2023-02-28T02:03:58;8.46;45.78
73112;HTU21D;61301;51.956;5.876;2023-02-28T02:06:47;8.43;45.75
73112;HTU21D;61301;51.956;5.876;2023-02-28T02:09:13;8.42;45.87
73112;HTU21D;61301;51.956;5.876;2023-02-28T02:11:41;8.42;45.75
73112;HTU21D;61301;51.956;5.876;2023-02-28T02:14:31;8.39;45.83
73112;HTU21D;61301;51.956;5.876;2023-02-28T02:17:10;8.38;45.90
73112;HTU21D;61301;51.956;5.876;2023-02-28T02:20:16;8.41;45.86
73112;HTU21D;61301;51.956;5.876;2023-02-28T02:36:25;8.02;46.32
73112;HTU21D;61301;51.956;5.876;2023-02-28T02:41:34;7.83;44.99
73112;HTU21D;61301;51.956;5.876;2023-02-28T02:46:39;7.78;45.03
73112;HTU21D;61301;51.956;5.876;2023-02-28T02:49:09;7.70;45.40
73112;HTU21D;61301;51.956;5.876;2023-02-28T02:51:37;7.74;45.31
73112;HTU21D;61301;51.956;5.876;2023-02-28T02:54:21;7.75;45.42
73112;HTU21D;61301;51.956;5.876;2023-02-28T02:56:50;7.72;45.11
73112;HTU21D;61301;51.956;5.876;2023-02-28T02:59:19;7.72;45.21
73112;HTU21D;61301;51.956;5.876;2023-02-28T03:01:53;7.72;45.10
73112;HTU21D;61301;51.956;5.876;2023-02-28T03:04:22;7.72;44.70
73112;HTU21D;61301;51.956;5.876;2023-02-28T03:06:51;7.69;44.47
73112;HTU21D;61301;51.956;5.876;2023-02-28T03:09:25;7.63;44.43
73112;HTU21D;61301;51.956;5.876;2023-02-28T03:11:52;7.65;44.53
73112;HTU21D;61301;51.956;5.876;2023-02-28T03:19:52;7.67;44.56
73112;HTU21D;61301;51.956;5.876;2023-02-28T03:25:29;7.57;44.82
73112;HTU21D;61301;51.956;5.876;2023-02-28T03:33:15;7.60;44.45
73112;HTU21D;61301;51.956;5.876;2023-02-28T03:35:48;7.58;44.58
73112;HTU21D;61301;51.956;5.876;2023-02-28T03:38:20;7.62;44.51
73112;HTU21D;61301;51.956;5.876;2023-02-28T03:40:51;7.64;44.34
73112;HTU21D;61301;51.956;5.876;2023-02-28T03:43:29;7.73;44.61
73112;HTU21D;61301;51.956;5.876;2023-02-28T03:45:58;7.79;44.45
73112;HTU21D;61301;51.956;5.876;2023-02-28T03:48:45;7.91;44.60
73112;HTU21D;61301;51.956;5.876;2023-02-28T03:51:16;7.98;44.44
73112;HTU21D;61301;51.956;5.876;2023-02-28T03:53:50;8.03;44.53
73112;HTU21D;61301;51.956;5.876;2023-02-28T03:56:22;8.12;44.72
73112;HTU21D;61301;51.956;5.876;2023-02-28T04:01:41;8.28;44.56
73112;HTU21D;61301;51.956;5.876;2023-02-28T04:04:09;8.34;46.03
73112;HTU21D;61301;51.956;5.876;2023-02-28T04:06:35;8.50;45.96
73112;HTU21D;61301;51.956;5.876;2023-02-28T04:09:03;8.59;45.73
73112;HTU21D;61301;51.956;5.876;2023-02-28T04:11:40;8.66;45.06
73112;HTU21D;61301;51.956;5.876;2023-02-28T04:14:08;8.66;44.90
73112;HTU21D;61301;51.956;5.876;2023-02-28T04:16:36;8.66;45.00
73112;HTU21D;61301;51.956;5.876;2023-02-28T04:19:04;8.76;45.66
73112;HTU21D;61301;51.956;5.876;2023-02-28T04:21:39;8.90;45.74
73112;HTU21D;61301;51.956;5.876;2023-02-28T04:24:06;8.97;46.06
73112;HTU21D;61301;51.956;5.876;2023-02-28T04:26:34;9.08;45.93
73112;HTU21D;61301;51.956;5.876;2023-02-28T04:29:06;9.19;45.83
73112;HTU21D;61301;51.956;5.876;2023-02-28T04:31:33;9.18;45.34
73112;HTU21D;61301;51.956;5.876;2023-02-28T04:34:00;9.16;45.32
73112;HTU21D;61301;51.956;5.876;2023-02-28T04:36:26;9.19;45.32
73112;HTU21D;61301;51.956;5.876;2023-02-28T04:38:52;9.23;45.71
73112;HTU21D;61301;51.956;5.876;2023-02-28T04:41:19;9.26;45.52
73112;HTU21D;61301;51.956;5.876;2023-02-28T04:43:45;9.29;45.44
73112;HTU21D;61301;51.956;5.876;2023-02-28T04:46:11;9.34;45.61
73112;HTU21D;61301;51.956;5.876;2023-02-28T04:48:39;9.40;46.41
73112;HTU21D;61301;51.956;5.876;2023-02-28T04:51:13;9.52;46.11
73112;HTU21D;61301;51.956;5.876;2023-02-28T04:53:41;9.56;45.64
73112;HTU21D;61301;51.956;5.876;2023-02-28T04:56:09;9.59;45.57
73112;HTU21D;61301;51.956;5.876;2023-02-28T04:58:36;9.63;45.77
73112;HTU21D;61301;51.956;5.876;2023-02-28T05:01:04;9.62;45.09
73112;HTU21D;61301;51.956;5.876;2023-02-28T05:03:39;9.60;45.36
73112;HTU21D;61301;51.956;5.876;2023-02-28T05:06:07;9.65;45.57
73112;HTU21D;61301;51.956;5.876;2023-02-28T05:08:33;9.60;45.26
73112;HTU21D;61301;51.956;5.876;2023-02-28T05:11:00;9.53;45.13
73112;HTU21D;61301;51.956;5.876;2023-02-28T05:13:27;9.48;45.05
73112;HTU21D;61301;51.956;5.876;2023-02-28T05:15:53;9.40;44.97
73112;HTU21D;61301;51.956;5.876;2023-02-28T05:18:19;9.35;45.22
73112;HTU21D;61301;51.956;5.876;2023-02-28T05:20:45;9.33;45.54
73112;HTU21D;61301;51.956;5.876;2023-02-28T05:23:13;9.32;45.31
73112;HTU21D;61301;51.956;5.876;2023-02-28T05:25:39;9.21;45.12
73112;HTU21D;61301;51.956;5.876;2023-02-28T05:28:06;9.17;45.12
73112;HTU21D;61301;51.956;5.876;2023-02-28T05:30:33;9.12;45.28
73112;HTU21D;61301;51.956;5.876;2023-02-28T05:32:59;9.17;45.51
73112;HTU21D;61301;51.956;5.876;2023-02-28T05:35:26;9.11;45.25
73112;HTU21D;61301;51.956;5.876;2023-02-28T05:37:52;9.02;44.81
73112;HTU21D;61301;51.956;5.876;2023-02-28T05:40:18;8.91;44.92
73112;HTU21D;61301;51.956;5.876;2023-02-28T05:42:46;8.85;44.90
73112;HTU21D;61301;51.956;5.876;2023-02-28T05:45:12;8.76;44.88
73112;HTU21D;61301;51.956;5.876;2023-02-28T05:47:38;8.76;45.27
73112;HTU21D;61301;51.956;5.876;2023-02-28T05:50:05;8.82;45.80
73112;HTU21D;61301;51.956;5.876;2023-02-28T05:52:31;8.91;45.79
73112;HTU21D;61301;51.956;5.876;2023-02-28T05:54:57;8.94;45.57
73112;HTU21D;61301;51.956;5.876;2023-02-28T05:57:24;8.96;45.48
73112;HTU21D;61301;51.956;5.876;2023-02-28T05:59:50;8.95;45.55
73112;HTU21D;61301;51.956;5.876;2023-02-28T06:02:17;9.01;45.77
73112;HTU21D;61301;51.956;5.876;2023-02-28T06:04:44;9.05;45.53
73112;HTU21D;61301;51.956;5.876;2023-02-28T06:07:10;9.00;45.35
73112;HTU21D;61301;51.956;5.876;2023-02-28T06:09:37;9.03;45.25
73112;HTU21D;61301;51.956;5.876;2023-02-28T06:12:05;9.02;45.05
73112;HTU21D;61301;51.956;5.876;2023-02-28T06:14:33;8.96;45.05
73112;HTU21D;61301;51.956;5.876;2023-02-28T06:17:00;8.92;45.09
73112;HTU21D;61301;51.956;5.876;2023-02-28T06:19:27;8.91;45.05
73112;HTU21D;61301;51.956;5.876;2023-02-28T06:21:54;8.91;45.06
73112;HTU21D;61301;51.956;5.876;2023-02-28T06:24:21;8.92;45.02
73112;HTU21D;61301;51.956;5.876;2023-02-28T06:26:48;8.87;44.96
73112;HTU21D;61301;51.956;5.876;2023-02-28T06:29:14;8.79;44.88
73112;HTU21D;61301;51.956;5.876;2023-02-28T06:31:45;8.70;44.87
73112;HTU21D;61301;51.956;5.876;2023-02-28T06:34:11;8.64;44.90
73112;HTU21D;61301;51.956;5.876;2023-02-28T06:36:39;8.55;44.83
73112;HTU21D;61301;51.956;5.876;2023-02-28T06:39:06;8.48;44.96
73112;HTU21D;61301;51.956;5.876;2023-02-28T06:41:32;8.44;44.80
73112;HTU21D;61301;51.956;5.876;2023-02-28T06:44:04;8.50;44.51
73112;HTU21D;61301;51.956;5.876;2023-02-28T06:46:31;8.46;44.42
73112;HTU21D;61301;51.956;5.876;2023-02-28T06:48:57;8.39;44.33
73112;HTU21D;61301;51.956;5.876;2023-02-28T06:51:23;8.39;44.35
73112;HTU21D;61301;51.956;5.876;2023-02-28T06:53:50;8.41;44.25
73112;HTU21D;61301;51.956;5.876;2023-02-28T06:56:19;8.49;43.79
73112;HTU21D;61301;51.956;5.876;2023-02-28T06:58:47;8.39;43.69
73112;HTU21D;61301;51.956;5.876;2023-02-28T07:01:14;8.39;42.85
73112;HTU21D;61301;51.956;5.876;2023-02-28T07:03:40;8.28;42.58
73112;HTU21D;61301;51.956;5.876;2023-02-28T07:06:07;8.20;42.55
73112;HTU21D;61301;51.956;5.876;2023-02-28T07:08:33;8.23;42.46
73112;HTU21D;61301;51.956;5.876;2023-02-28T07:11:00;8.17;42.11
73112;HTU21D;61301;51.956;5.876;2023-02-28T07:13:26;8.12;41.87
73112;HTU21D;61301;51.956;5.876;2023-02-28T07:15:57;8.14;41.56
73112;HTU21D;61301;51.956;5.876;2023-02-28T07:18:24;8.08;40.93
73112;HTU21D;61301;51.956;5.876;2023-02-28T07:20:51;8.04;41.21
73112;HTU21D;61301;51.956;5.876;2023-02-28T07:23:17;8.01;41.03
73112;HTU21D;61301;51.956;5.876;2023-02-28T07:25:43;8.01;40.81
73112;HTU21D;61301;51.956;5.876;2023-02-28T07:28:09;8.01;40.59
73112;HTU21D;61301;51.956;5.876;2023-02-28T07:30:35;8.01;40.47
73112;HTU21D;61301;51.956;5.876;2023-02-28T07:33:01;8.02;40.07
73112;HTU21D;61301;51.956;5.876;2023-02-28T07:35:27;7.98;40.36
73112;HTU21D;61301;51.956;5.876;2023-02-28T07:37:53;8.02;40.21
73112;HTU21D;61301;51.956;5.876;2023-02-28T07:40:19;8.00;40.01
73112;HTU21D;61301;51.956;5.876;2023-02-28T07:42:45;8.00;40.08
73112;HTU21D;61301;51.956;5.876;2023-02-28T07:45:16;7.94;39.89
73112;HTU21D;61301;51.956;5.876;2023-02-28T07:47:43;8.01;40.19
73112;HTU21D;61301;51.956;5.876;2023-02-28T07:50:12;8.06;40.23
73112;HTU21D;61301;51.956;5.876;2023-02-28T07:52:39;8.16;39.86
73112;HTU21D;61301;51.956;5.876;2023-02-28T07:55:07;8.20;39.87
73112;HTU21D;61301;51.956;5.876;2023-02-28T07:57:34;8.28;39.81
73112;HTU21D;61301;51.956;5.876;2023-02-28T08:00:00;8.29;40.19
73112;HTU21D;61301;51.956;5.876;2023-02-28T08:02:26;8.41;39.84
73112;HTU21D;61301;51.956;5.876;2023-02-28T08:04:52;8.43;39.94
73112;HTU21D;61301;51.956;5.876;2023-02-28T08:07:18;8.34;40.20
73112;HTU21D;61301;51.956;5.876;2023-02-28T08:09:44;8.47;39.90
73112;HTU21D;61301;51.956;5.876;2023-02-28T08:12:11;8.44;39.33
73112;HTU21D;61301;51.956;5.876;2023-02-28T08:14:37;8.51;39.31
73112;HTU21D;61301;51.956;5.876;2023-02-28T08:17:04;8.42;39.07
73112;HTU21D;61301;51.956;5.876;2023-02-28T08:19:30;8.56;38.65
73112;HTU21D;61301;51.956;5.876;2023-02-28T08:21:56;8.70;39.57
73112;HTU21D;61301;51.956;5.876;2023-02-28T08:24:22;8.87;38.21
73112;HTU21D;61301;51.956;5.876;2023-02-28T08:26:49;8.85;36.40
73112;HTU21D;61301;51.956;5.876;2023-02-28T08:29:15;8.89;36.96
73112;HTU21D;61301;51.956;5.876;2023-02-28T08:31:41;8.88;35.93
73112;HTU21D;61301;51.956;5.876;2023-02-28T08:34:09;8.97;35.72
73112;HTU21D;61301;51.956;5.876;2023-02-28T08:36:36;9.15;36.13
73112;HTU21D;61301;51.956;5.876;2023-02-28T08:39:03;9.33;34.98
73112;HTU21D;61301;51.956;5.876;2023-02-28T08:41:29;9.23;32.82
73112;HTU21D;61301;51.956;5.876;2023-02-28T08:43:55;9.19;33.97
73112;HTU21D;61301;51.956;5.876;2023-02-28T08:46:24;9.35;32.87
73112;HTU21D;61301;51.956;5.876;2023-02-28T08:48:54;9.21;32.05
73112;HTU21D;61301;51.956;5.876;2023-02-28T08:51:21;9.14;31.48
73112;HTU21D;61301;51.956;5.876;2023-02-28T08:53:53;9.20;31.23
73112;HTU21D;61301;51.956;5.876;2023-02-28T08:56:20;9.07;29.55
73112;HTU21D;61301;51.956;5.876;2023-02-28T08:58:48;9.15;30.74
73112;HTU21D;61301;51.956;5.876;2023-02-28T09:01:17;9.39;31.73
73112;HTU21D;61301;51.956;5.876;2023-02-28T09:03:44;9.70;30.44
73112;HTU21D;61301;51.956;5.876;2023-02-28T09:06:13;9.82;30.69
73112;HTU21D;61301;51.956;5.876;2023-02-28T09:08:39;9.90;29.90
73112;HTU21D;61301;51.956;5.876;2023-02-28T09:11:06;10.09;30.52
73112;HTU21D;61301;51.956;5.876;2023-02-28T09:13:32;10.33;31.05
73112;HTU21D;61301;51.956;5.876;2023-02-28T09:16:00;10.52;31.04
73112;HTU21D;61301;51.956;5.876;2023-02-28T09:18:26;10.33;27.65
73112;HTU21D;61301;51.956;5.876;2023-02-28T09:20:53;10.19;27.66
73112;HTU21D;61301;51.956;5.876;2023-02-28T09:23:19;10.15;28.24
73112;HTU21D;61301;51.956;5.876;2023-02-28T09:25:47;10.35;27.91
73112;HTU21D;61301;51.956;5.876;2023-02-28T09:28:14;10.38;28.07
73112;HTU21D;61301;51.956;5.876;2023-02-28T09:30:48;10.57;28.11
73112;HTU21D;61301;51.956;5.876;2023-02-28T09:33:15;10.38;27.00
73112;HTU21D;61301;51.956;5.876;2023-02-28T09:35:42;10.53;27.91
73112;HTU21D;61301;51.956;5.876;2023-02-28T09:38:10;10.57;26.98
73112;HTU21D;61301;51.956;5.876;2023-02-28T09:43:50;10.74;27.94
73112;HTU21D;61301;51.956;5.876;2023-02-28T09:46:22;10.85;27.10
73112;HTU21D;61301;51.956;5.876;2023-02-28T09:48:51;10.67;26.81
73112;HTU21D;61301;51.956;5.876;2023-02-28T09:53:49;10.86;27.16
73112;HTU21D;61301;51.956;5.876;2023-02-28T09:56:27;11.09;27.02
73112;HTU21D;61301;51.956;5.876;2023-02-28T09:59:10;11.17;26.94
73112;HTU21D;61301;51.956;5.876;2023-02-28T10:10:04;11.29;26.76
73112;HTU21D;61301;51.956;5.876;2023-02-28T10:12:31;11.27;27.86
73112;HTU21D;61301;51.956;5.876;2023-02-28T10:14:59;11.47;28.10
73112;HTU21D;61301;51.956;5.876;2023-02-28T10:17:27;11.62;27.30
73112;HTU21D;61301;51.956;5.876;2023-02-28T10:20:03;11.70;26.83
73112;HTU21D;61301;51.956;5.876;2023-02-28T10:22:53;11.63;26.29
73112;HTU21D;61301;51.956;5.876;2023-02-28T10:25:25;11.64;26.55
73112;HTU21D;61301;51.956;5.876;2023-02-28T10:27:54;11.52;25.93
73112;HTU21D;61301;51.956;5.876;2023-02-28T10:30:22;11.56;26.04
73112;HTU21D;61301;51.956;5.876;2023-02-28T10:32:50;11.59;25.36
73112;HTU21D;61301;51.956;5.876;2023-02-28T10:35:18;11.45;25.29
73112;HTU21D;61301;51.956;5.876;2023-02-28T10:37:48;11.16;25.53
73112;HTU21D;61301;51.956;5.876;2023-02-28T10:45:28;11.52;26.26
73112;HTU21D;61301;51.956;5.876;2023-02-28T10:48:26;11.72;27.21
73112;HTU21D;61301;51.956;5.876;2023-02-28T10:50:53;11.81;26.59
73112;HTU21D;61301;51.956;5.876;2023-02-28T10:58:59;12.35;25.57
73112;HTU21D;61301;51.956;5.876;2023-02-28T11:04:01;12.16;25.45
73112;HTU21D;61301;51.956;5.876;2023-02-28T11:06:33;12.26;25.17
73112;HTU21D;61301;51.956;5.876;2023-02-28T11:11:45;12.26;25.95
73112;HTU21D;61301;51.956;5.876;2023-02-28T11:14:26;12.27;25.09
73112;HTU21D;61301;51.956;5.876;2023-02-28T11:16:54;12.28;25.81
73112;HTU21D;61301;51.956;5.876;2023-02-28T11:19:34;12.40;25.24
73112;HTU21D;61301;51.956;5.876;2023-02-28T11:22:04;12.55;25.81
73112;HTU21D;61301;51.956;5.876;2023-02-28T11:24:37;12.70;25.99
73112;HTU21D;61301;51.956;5.876;2023-02-28T11:29:59;12.84;25.90
73112;HTU21D;61301;51.956;5.876;2023-02-28T11:32:30;12.90;25.04
73112;HTU21D;61301;51.956;5.876;2023-02-28T11:35:02;12.96;23.73
73112;HTU21D;61301;51.956;5.876;2023-02-28T11:37:30;12.94;23.76
73112;HTU21D;61301;51.956;5.876;2023-02-28T11:39:57;12.90;23.52
73112;HTU21D;61301;51.956;5.876;2023-02-28T12:10:26;13.59;23.73
73112;HTU21D;61301;51.956;5.876;2023-02-28T12:18:26;13.18;22.86
73112;HTU21D;61301;51.956;5.876;2023-02-28T12:21:26;13.10;22.57
73112;HTU21D;61301;51.956;5.876;2023-02-28T12:26:56;13.19;24.12
73112;HTU21D;61301;51.956;5.876;2023-02-28T12:29:28;13.38;23.85
73112;HTU21D;61301;51.956;5.876;2023-02-28T12:32:30;13.56;22.45
73112;HTU21D;61301;51.956;5.876;2023-02-28T12:35:06;13.49;22.70
73112;HTU21D;61301;51.956;5.876;2023-02-28T12:37:50;13.31;22.77
73112;HTU21D;61301;51.956;5.876;2023-02-28T12:40:23;13.31;23.71
73112;HTU21D;61301;51.956;5.876;2023-02-28T12:43:00;13.48;23.39
73112;HTU21D;61301;51.956;5.876;2023-02-28T12:45:50;13.66;23.28
73112;HTU21D;61301;51.956;5.876;2023-02-28T12:48:29;13.65;22.65
73112;HTU21D;61301;51.956;5.876;2023-02-28T12:50:57;13.69;22.64
73112;HTU21D;61301;51.956;5.876;2023-02-28T12:53:49;13.77;21.79
73112;HTU21D;61301;51.956;5.876;2023-02-28T12:58:47;13.27;22.57
73112;HTU21D;61301;51.956;5.876;2023-02-28T13:01:33;13.50;24.52
73112;HTU21D;61301;51.956;5.876;2023-02-28T13:04:41;13.85;22.43
73112;HTU21D;61301;51.956;5.876;2023-02-28T13:10:00;14.01;23.47
73112;HTU21D;61301;51.956;5.876;2023-02-28T13:12:28;14.17;23.03
73112;HTU21D;61301;51.956;5.876;2023-02-28T13:15:18;14.22;22.74
73112;HTU21D;61301;51.956;5.876;2023-02-28T13:17:55;14.30;23.49
73112;HTU21D;61301;51.956;5.876;2023-02-28T13:20:33;14.26;22.01
73112;HTU21D;61301;51.956;5.876;2023-02-28T13:23:00;14.28;22.34
73112;HTU21D;61301;51.956;5.876;2023-02-28T13:28:01;14.25;22.17
73112;HTU21D;61301;51.956;5.876;2023-02-28T13:33:25;14.10;22.00
73112;HTU21D;61301;51.956;5.876;2023-02-28T13:36:45;13.99;21.13
73112;HTU21D;61301;51.956;5.876;2023-02-28T13:38:53;13.89;22.08
73112;HTU21D;61301;51.956;5.876;2023-02-28T13:44:23;14.18;22.34
73112;HTU21D;61301;51.956;5.876;2023-02-28T13:49:26;14.54;22.46
73112;HTU21D;61301;51.956;5.876;2023-02-28T14:05:19;14.23;21.42
73112;HTU21D;61301;51.956;5.876;2023-02-28T14:07:57;14.26;21.82
73112;HTU21D;61301;51.956;5.876;2023-02-28T14:10:34;14.29;21.86
73112;HTU21D;61301;51.956;5.876;2023-02-28T14:15:56;14.24;21.40
73112;HTU21D;61301;51.956;5.876;2023-02-28T14:21:21;14.18;21.63
73112;HTU21D;61301;51.956;5.876;2023-02-28T14:32:05;14.59;21.77
73112;HTU21D;61301;51.956;5.876;2023-02-28T14:34:49;14.57;20.99
73112;HTU21D;61301;51.956;5.876;2023-02-28T14:37:23;14.39;21.38
73112;HTU21D;61301;51.956;5.876;2023-02-28T14:39:53;14.45;21.85
73112;HTU21D;61301;51.956;5.876;2023-02-28T14:42:34;14.66;21.31
73112;HTU21D;61301;51.956;5.876;2023-02-28T14:45:01;14.66;21.83
73112;HTU21D;61301;51.956;5.876;2023-02-28T14:47:31;14.78;21.73
73112;HTU21D;61301;51.956;5.876;2023-02-28T14:49:59;14.74;21.34
73112;HTU21D;61301;51.956;5.876;2023-02-28T14:52:28;14.67;21.52
73112;HTU21D;61301;51.956;5.876;2023-02-28T14:55:17;14.88;22.01
73112;HTU21D;61301;51.956;5.876;2023-02-28T14:57:55;14.88;21.00
73112;HTU21D;61301;51.956;5.876;2023-02-28T15:00:34;14.87;21.01
73112;HTU21D;61301;51.956;5.876;2023-02-28T15:03:19;14.79;21.18
73112;HTU21D;61301;51.956;5.876;2023-02-28T15:05:54;14.88;20.89
73112;HTU21D;61301;51.956;5.876;2023-02-28T15:08:20;14.96;21.09
73112;HTU21D;61301;51.956;5.876;2023-02-28T15:10:59;15.30;21.57
73112;HTU21D;61301;51.956;5.876;2023-02-28T15:16:04;15.81;19.95
73112;HTU21D;61301;51.956;5.876;2023-02-28T15:18:41;15.56;19.87
73112;HTU21D;61301;51.956;5.876;2023-02-28T15:21:15;15.58;20.76
73112;HTU21D;61301;51.956;5.876;2023-02-28T15:23:45;15.71;20.86
73112;HTU21D;61301;51.956;5.876;2023-02-28T15:26:19;15.93;21.37
73112;HTU21D;61301;51.956;5.876;2023-02-28T15:28:47;16.05;20.26
73112;HTU21D;61301;51.956;5.876;2023-02-28T15:31:28;15.82;19.86
73112;HTU21D;61301;51.956;5.876;2023-02-28T15:34:04;15.66;20.65
73112;HTU21D;61301;51.956;5.876;2023-02-28T15:36:32;15.58;20.04
73112;HTU21D;61301;51.956;5.876;2023-02-28T15:39:00;15.44;20.43
73112;HTU21D;61301;51.956;5.876;2023-02-28T15:41:29;15.28;20.78
73112;HTU21D;61301;51.956;5.876;2023-02-28T15:44:23;15.10;20.89
73112;HTU21D;61301;51.956;5.876;2023-02-28T15:47:14;15.06;21.29
73112;HTU21D;61301;51.956;5.876;2023-02-28T15:49:57;14.97;21.40
73112;HTU21D;61301;51.956;5.876;2023-02-28T15:55:09;15.15;21.36
73112;HTU21D;61301;51.956;5.876;2023-02-28T15:57:39;15.28;21.25
73112;HTU21D;61301;51.956;5.876;2023-02-28T16:00:09;15.39;20.73
73112;HTU21D;61301;51.956;5.876;2023-02-28T16:02:38;15.25;20.54
73112;HTU21D;61301;51.956;5.876;2023-02-28T16:07:34;15.16;20.88
73112;HTU21D;61301;51.956;5.876;2023-02-28T16:10:01;14.96;21.56
73112;HTU21D;61301;51.956;5.876;2023-02-28T16:12:30;14.81;21.69
73112;HTU21D;61301;51.956;5.876;2023-02-28T16:14:59;14.52;21.86
73112;HTU21D;61301;51.956;5.876;2023-02-28T16:17:31;14.37;22.40
73112;HTU21D;61301;51.956;5.876;2023-02-28T16:19:59;14.55;22.43
73112;HTU21D;61301;51.956;5.876;2023-02-28T16:22:25;14.35;22.40
73112;HTU21D;61301;51.956;5.876;2023-02-28T16:24:52;14.13;22.20
73112;HTU21D;61301;51.956;5.876;2023-02-28T16:27:29;13.95;23.03
73112;HTU21D;61301;51.956;5.876;2023-02-28T16:29:56;13.71;22.89
73112;HTU21D;61301;51.956;5.876;2023-02-28T16:32:22;13.39;23.29
73112;HTU21D;61301;51.956;5.876;2023-02-28T16:34:48;13.12;23.54
73112;HTU21D;61301;51.956;5.876;2023-02-28T16:37:16;12.82;24.28
73112;HTU21D;61301;51.956;5.876;2023-02-28T16:39:44;12.59;24.67
73112;HTU21D;61301;51.956;5.876;2023-02-28T16:42:16;12.46;25.06
73112;HTU21D;61301;51.956;5.876;2023-02-28T16:44:44;12.43;25.17
73112;HTU21D;61301;51.956;5.876;2023-02-28T16:47:11;12.41;25.28
73112;HTU21D;61301;51.956;5.876;2023-02-28T16:49:37;12.37;25.39
73112;HTU21D;61301;51.956;5.876;2023-02-28T16:52:04;12.26;25.61
73112;HTU21D;61301;51.956;5.876;2023-02-28T16:54:31;12.18;25.81
73112;HTU21D;61301;51.956;5.876;2023-02-28T16:57:00;12.18;27.47
73112;HTU21D;61301;51.956;5.876;2023-02-28T16:59:27;12.23;26.97
73112;HTU21D;61301;51.956;5.876;2023-02-28T17:01:55;12.29;26.26
73112;HTU21D;61301;51.956;5.876;2023-02-28T17:04:25;12.22;26.39
73112;HTU21D;61301;51.956;5.876;2023-02-28T17:06:51;12.21;26.42
73112;HTU21D;61301;51.956;5.876;2023-02-28T17:09:21;12.17;26.58
73112;HTU21D;61301;51.956;5.876;2023-02-28T17:11:48;12.16;26.61
73112;HTU21D;61301;51.956;5.876;2023-02-28T17:14:15;12.11;26.65
73112;HTU21D;61301;51.956;5.876;2023-02-28T17:16:41;12.01;26.71
73112;HTU21D;61301;51.956;5.876;2023-02-28T17:19:14;11.94;27.12
73112;HTU21D;61301;51.956;5.876;2023-02-28T17:21:41;11.87;27.19
73112;HTU21D;61301;51.956;5.876;2023-02-28T17:24:10;11.92;27.16
73112;HTU21D;61301;51.956;5.876;2023-02-28T17:26:39;11.92;27.56
73112;HTU21D;61301;51.956;5.876;2023-02-28T17:29:15;12.02;27.29
73112;HTU21D;61301;51.956;5.876;2023-02-28T17:31:44;11.90;27.41
73112;HTU21D;61301;51.956;5.876;2023-02-28T17:34:11;11.87;27.55
73112;HTU21D;61301;51.956;5.876;2023-02-28T17:36:37;11.84;27.56
73112;HTU21D;61301;51.956;5.876;2023-02-28T17:39:04;11.72;27.66
73112;HTU21D;61301;51.956;5.876;2023-02-28T17:41:34;11.63;27.73
73112;HTU21D;61301;51.956;5.876;2023-02-28T17:44:00;11.55;27.84
73112;HTU21D;61301;51.956;5.876;2023-02-28T17:46:26;11.48;27.94
73112;HTU21D;61301;51.956;5.876;2023-02-28T17:48:54;11.44;28.05
73112;HTU21D;61301;51.956;5.876;2023-02-28T17:51:22;11.42;28.33
73112;HTU21D;61301;51.956;5.876;2023-02-28T17:53:48;11.56;28.59
73112;HTU21D;61301;51.956;5.876;2023-02-28T17:56:25;11.69;28.93
73112;HTU21D;61301;51.956;5.876;2023-02-28T17:58:55;11.69;28.55
73112;HTU21D;61301;51.956;5.876;2023-02-28T18:01:23;11.70;28.65
73112;HTU21D;61301;51.956;5.876;2023-02-28T18:03:52;11.76;28.65
73112;HTU21D;61301;51.956;5.876;2023-02-28T18:06:28;11.75;28.52
73112;HTU21D;61301;51.956;5.876;2023-02-28T18:08:55;11.69;28.34
73112;HTU21D;61301;51.956;5.876;2023-02-28T18:11:22;11.60;28.37
73112;HTU21D;61301;51.956;5.876;2023-02-28T18:13:53;11.57;28.50
73112;HTU21D;61301;51.956;5.876;2023-02-28T18:16:20;11.54;28.30
73112;HTU21D;61301;51.956;5.876;2023-02-28T18:18:48;11.42;28.51
73112;HTU21D;61301;51.956;5.876;2023-02-28T18:21:15;11.34;28.63